createdAt,value
2023-04-12T00:01:56.699Z,3.08
2023-04-12T00:05:03.122Z,3.80
2023-04-12T00:08:06.360Z,3.30
2023-04-12T00:11:21.637Z,3.58
2023-04-12T00:14:25.179Z,3.65
2023-04-12T00:17:28.583Z,3.42
2023-04-12T00:20:31.701Z,3.45
2023-04-12T00:23:34.437Z,3.20
2023-04-12T00:26:37.330Z,3.90
2023-04-12T00:29:40.621Z,3.67
2023-04-12T00:32:43.434Z,3.65
2023-04-12T00:35:46.592Z,3.70
2023-04-12T00:38:51.375Z,3.75
2023-04-12T00:41:57.072Z,3.90
2023-04-12T00:44:59.949Z,4.05
2023-04-12T00:48:03.908Z,4.38
2023-04-12T00:51:07.986Z,3.85
2023-04-12T00:54:14.007Z,4.05
2023-04-12T00:57:17.083Z,4.28
2023-04-12T01:00:19.895Z,4.70
2023-04-12T01:03:28.073Z,4.82
2023-04-12T01:06:44.835Z,4.57
2023-04-12T01:10:04.376Z,4.05
2023-04-12T01:13:26.101Z,4.18
2023-04-12T01:16:47.769Z,4.60
2023-04-12T01:20:13.743Z,4.20
2023-04-12T01:23:44.777Z,4.57
2023-04-12T01:26:49.108Z,4.28
2023-04-12T01:29:52.031Z,4.47
2023-04-12T01:32:56.920Z,4.82
2023-04-12T01:36:01.014Z,4.78
2023-04-12T01:39:05.144Z,4.90
2023-04-12T01:42:07.740Z,4.85
2023-04-12T01:45:10.578Z,4.72
2023-04-12T01:48:13.691Z,4.80
2023-04-12T01:51:42.299Z,5.28
2023-04-12T01:54:51.402Z,4.32
2023-04-12T01:57:54.508Z,4.20
2023-04-12T02:00:59.972Z,4.70
2023-04-12T02:04:04.785Z,4.72
2023-04-12T02:07:07.628Z,4.75
2023-04-12T02:10:15.228Z,4.22
2023-04-12T02:13:18.392Z,4.75
2023-04-12T02:16:23.272Z,4.68
2023-04-12T02:19:25.817Z,4.70
2023-04-12T02:22:29.424Z,5.15
2023-04-12T02:25:33.449Z,4.80
2023-04-12T02:28:39.493Z,4.70
2023-04-12T02:31:45.420Z,4.70
2023-04-12T02:34:51.535Z,4.93
2023-04-12T02:37:56.191Z,5.80
2023-04-12T02:41:03.062Z,4.70
2023-04-12T02:44:07.705Z,5.35
2023-04-12T02:47:10.957Z,4.13
2023-04-12T02:50:15.605Z,5.55
2023-04-12T02:53:27.816Z,4.75
2023-04-12T02:56:52.684Z,4.70
2023-04-12T03:00:13.381Z,5.20
2023-04-12T03:03:26.188Z,4.78
2023-04-12T03:06:32.223Z,5.03
2023-04-12T03:09:38.704Z,4.72
2023-04-12T03:12:41.631Z,4.55
2023-04-12T03:15:57.289Z,6.15
2023-04-12T03:19:07.236Z,5.07
2023-04-12T03:22:11.011Z,4.93
2023-04-12T03:25:20.096Z,4.60
2023-04-12T03:28:29.329Z,5.28
2023-04-12T03:31:32.892Z,4.32
2023-04-12T03:34:40.913Z,4.00
2023-04-12T03:37:48.145Z,4.97
2023-04-12T03:40:51.173Z,4.30
2023-04-12T03:44:01.676Z,4.53
2023-04-12T03:47:05.416Z,4.60
2023-04-12T03:50:12.590Z,4.10
2023-04-12T03:53:21.474Z,5.25
2023-04-12T03:56:24.561Z,5.55
2023-04-12T03:59:30.867Z,5.43
2023-04-12T04:02:34.708Z,4.07
2023-04-12T04:05:38.490Z,3.83
2023-04-12T04:08:42.590Z,4.00
2023-04-12T04:11:45.880Z,3.72
2023-04-12T04:14:49.231Z,4.63
2023-04-12T04:18:03.326Z,4.13
2023-04-12T04:21:07.536Z,4.95
2023-04-12T04:24:11.583Z,5.05
2023-04-12T04:27:20.581Z,4.30
2023-04-12T04:33:26.693Z,4.55
2023-04-12T04:36:37.457Z,4.93
2023-04-12T04:39:41.554Z,4.57
2023-04-12T04:42:46.454Z,4.50
2023-04-12T04:45:54.701Z,4.57
2023-04-12T04:48:58.734Z,4.70
2023-04-12T04:52:01.367Z,3.95
2023-04-12T04:55:06.926Z,4.25
2023-04-12T04:58:13.566Z,3.40
2023-04-12T05:01:17.069Z,3.42
2023-04-12T05:04:22.801Z,3.28
2023-04-12T05:07:26.240Z,4.00
2023-04-12T05:10:29.817Z,3.40
2023-04-12T05:13:35.939Z,3.40
2023-04-12T05:16:38.476Z,3.20
2023-04-12T05:19:43.954Z,3.45
2023-04-12T05:22:47.178Z,3.33
2023-04-12T05:25:50.201Z,3.08
2023-04-12T05:28:55.574Z,3.42
2023-04-12T05:31:59.514Z,3.40
2023-04-12T05:35:02.912Z,3.60
2023-04-12T05:38:05.935Z,4.00
2023-04-12T05:41:09.206Z,3.40
2023-04-12T05:44:12.281Z,3.30
2023-04-12T05:47:14.796Z,3.90
2023-04-12T05:50:17.901Z,3.55
2023-04-12T05:53:21.989Z,3.72
2023-04-12T05:56:24.468Z,3.80
2023-04-12T05:59:27.051Z,3.53
2023-04-12T06:02:30.934Z,3.50
2023-04-12T06:05:34.289Z,4.15
2023-04-12T06:08:38.178Z,4.10
2023-04-12T06:11:41.024Z,3.95
2023-04-12T06:14:43.632Z,3.42
2023-04-12T06:17:46.599Z,3.75
2023-04-12T06:20:49.161Z,5.53
2023-04-12T06:23:52.181Z,4.38
2023-04-12T06:26:54.670Z,3.83
2023-04-12T06:29:57.542Z,3.88
2023-04-12T06:33:00.663Z,3.70
2023-04-12T06:36:03.744Z,5.00
2023-04-12T06:39:06.836Z,4.55
2023-04-12T06:42:09.415Z,4.20
2023-04-12T06:45:15.530Z,4.25
2023-04-12T06:48:18.599Z,4.10
2023-04-12T06:51:21.222Z,3.83
2023-04-12T06:54:24.163Z,4.10
2023-04-12T06:57:26.848Z,4.00
2023-04-12T07:00:29.585Z,3.70
2023-04-12T07:03:33.479Z,4.22
2023-04-12T07:06:36.343Z,4.00
2023-04-12T07:09:38.941Z,3.92
2023-04-12T07:12:42.363Z,3.88
2023-04-12T07:15:45.065Z,3.72
2023-04-12T07:18:48.499Z,4.10
2023-04-12T07:21:51.331Z,4.22
2023-04-12T07:24:53.933Z,4.13
2023-04-12T07:27:56.741Z,5.25
2023-04-12T07:30:59.241Z,6.05
2023-04-12T07:34:02.102Z,5.45
2023-04-12T07:37:04.979Z,5.15
2023-04-12T07:40:08.028Z,4.10
2023-04-12T07:43:10.578Z,4.13
2023-04-12T07:46:13.064Z,3.90
2023-04-12T07:49:15.793Z,4.28
2023-04-12T07:52:18.626Z,4.10
2023-04-12T07:55:21.503Z,4.07
2023-04-12T07:58:24.989Z,4.07
2023-04-12T08:01:27.673Z,4.10
2023-04-12T08:04:30.279Z,3.53
2023-04-12T08:07:32.935Z,3.88
2023-04-12T08:10:37.128Z,3.45
2023-04-12T08:13:39.847Z,4.38
2023-04-12T08:16:42.650Z,3.53
2023-04-12T08:19:46.377Z,4.10
2023-04-12T08:22:49.525Z,4.95
2023-04-12T08:25:59.461Z,3.70
2023-04-12T08:29:02.104Z,3.20
2023-04-12T08:32:05.325Z,3.63
2023-04-12T08:35:08.359Z,3.17
2023-04-12T08:38:10.905Z,4.28
2023-04-12T08:41:14.283Z,5.38
2023-04-12T08:44:18.261Z,3.47
2023-04-12T08:47:21.197Z,3.40
2023-04-12T08:50:25.850Z,3.30
2023-04-12T08:53:28.476Z,2.80
2023-04-12T08:56:32.024Z,3.22
2023-04-12T08:59:39.288Z,3.35
2023-04-12T09:02:46.494Z,3.35
2023-04-12T09:05:49.988Z,3.20
2023-04-12T09:08:54.941Z,4.10
2023-04-12T09:15:09.501Z,2.80
2023-04-12T09:18:16.684Z,3.17
2023-04-12T09:21:20.278Z,2.70
2023-04-12T09:24:25.972Z,3.30
2023-04-12T09:27:29.802Z,2.67
2023-04-12T09:30:41.642Z,3.50
2023-04-12T09:33:46.172Z,3.20
2023-04-12T09:36:48.709Z,3.40
2023-04-12T09:40:10.413Z,2.92
2023-04-12T09:43:13.147Z,3.00
2023-04-12T09:46:16.633Z,3.00
2023-04-12T09:49:19.316Z,2.80
2023-04-12T09:52:21.938Z,2.63
2023-04-12T09:55:27.377Z,3.33
2023-04-12T09:58:33.761Z,3.25
2023-04-12T10:01:39.679Z,2.88
2023-04-12T10:04:43.412Z,2.75
2023-04-12T10:07:47.541Z,2.50
2023-04-12T10:10:51.487Z,3.17
2023-04-12T10:13:56.627Z,2.58
2023-04-12T10:17:01.848Z,2.30
2023-04-12T10:20:06.008Z,3.08
2023-04-12T10:23:09.598Z,3.28
2023-04-12T10:26:12.437Z,3.47
2023-04-12T10:29:34.707Z,3.20
2023-04-12T10:32:37.619Z,3.47
2023-04-12T10:35:52.446Z,2.88
2023-04-12T10:39:10.008Z,3.30
2023-04-12T10:42:24.685Z,2.80
2023-04-12T10:45:34.212Z,4.05
2023-04-12T10:48:38.622Z,3.53
2023-04-12T10:52:04.285Z,4.38
2023-04-12T10:55:30.200Z,3.95
2023-04-12T10:58:47.828Z,2.67
2023-04-12T11:02:09.483Z,3.30
2023-04-12T11:05:14.441Z,3.10
2023-04-12T11:08:32.179Z,3.53
2023-04-12T11:12:04.842Z,3.67
2023-04-12T11:15:12.780Z,4.10
2023-04-12T11:18:27.095Z,5.07
2023-04-12T11:21:30.800Z,2.90
2023-04-12T11:27:38.232Z,3.00
2023-04-12T11:30:50.968Z,2.95
2023-04-12T11:33:53.757Z,3.65
2023-04-12T11:36:56.440Z,4.35
2023-04-12T11:39:59.251Z,3.60
2023-04-12T11:43:01.837Z,2.97
2023-04-12T11:46:05.061Z,3.28
2023-04-12T11:49:07.776Z,2.55
2023-04-12T11:52:10.402Z,3.13
2023-04-12T11:55:12.969Z,3.10
2023-04-12T11:58:16.177Z,2.97
2023-04-12T12:01:20.767Z,3.05
2023-04-12T12:04:24.268Z,2.88
2023-04-12T12:10:42.070Z,3.10
2023-04-12T12:13:53.922Z,2.30
2023-04-12T12:16:58.512Z,2.80
2023-04-12T12:20:02.327Z,2.55
2023-04-12T12:23:05.085Z,2.50
2023-04-12T12:26:18.527Z,2.42
2023-04-12T12:29:24.438Z,2.20
2023-04-12T12:32:33.486Z,2.50
2023-04-12T12:35:36.898Z,2.10
2023-04-12T12:38:42.884Z,2.45
2023-04-12T12:41:54.682Z,2.80
2023-04-12T12:44:57.155Z,3.50
2023-04-12T12:48:04.472Z,2.63
2023-04-12T12:51:09.201Z,2.60
2023-04-12T12:54:12.297Z,2.60
2023-04-12T12:57:14.828Z,2.55
2023-04-12T13:00:19.451Z,2.10
2023-04-12T13:03:22.378Z,2.00
2023-04-12T13:06:28.180Z,2.30
2023-04-12T13:09:31.652Z,2.60
2023-04-12T13:12:34.178Z,2.60
2023-04-12T13:15:36.830Z,2.42
2023-04-12T13:18:39.450Z,2.45
2023-04-12T13:21:41.980Z,2.70
2023-04-12T13:24:44.594Z,2.90
2023-04-12T13:27:51.815Z,2.80
2023-04-12T13:30:54.489Z,2.33
2023-04-12T13:33:57.470Z,2.50
2023-04-12T13:37:01.047Z,2.50
2023-04-12T13:40:04.676Z,2.40
2023-04-12T13:43:08.779Z,2.47
2023-04-12T13:46:13.049Z,2.55
2023-04-12T13:49:16.294Z,2.50
2023-04-12T13:52:18.887Z,2.47
2023-04-12T13:55:21.637Z,2.97
2023-04-12T13:58:25.890Z,2.67
2023-04-12T14:01:28.585Z,2.38
2023-04-12T14:04:31.702Z,2.60
2023-04-12T14:07:34.401Z,2.47
2023-04-12T14:10:37.074Z,2.25
2023-04-12T14:13:39.715Z,2.40
2023-04-12T14:16:42.434Z,2.38
2023-04-12T14:19:45.086Z,2.50
2023-04-12T14:22:47.651Z,2.10
2023-04-12T14:25:50.257Z,2.75
2023-04-12T14:28:53.100Z,2.28
2023-04-12T14:31:55.743Z,2.40
2023-04-12T14:34:58.341Z,8.95
2023-04-12T14:38:01.156Z,3.10
2023-04-12T14:41:09.402Z,5.07
2023-04-12T14:44:12.281Z,3.53
2023-04-12T14:47:14.849Z,2.67
2023-04-12T14:50:17.603Z,3.22
2023-04-12T14:53:21.189Z,3.50
2023-04-12T14:56:28.669Z,2.20
2023-04-12T14:59:32.393Z,2.53
2023-04-12T15:02:35.207Z,1.98
2023-04-12T15:05:38.010Z,2.70
2023-04-12T15:08:43.185Z,2.70
2023-04-12T15:11:49.956Z,2.40
2023-04-12T15:14:58.271Z,2.10
2023-04-12T15:18:03.481Z,2.55
2023-04-12T15:21:08.761Z,2.50
2023-04-12T15:24:11.522Z,2.15
2023-04-12T15:27:14.120Z,2.40
2023-04-12T15:30:17.933Z,2.35
2023-04-12T15:33:23.828Z,2.15
2023-04-12T15:36:33.743Z,2.25
2023-04-12T15:39:36.842Z,2.28
2023-04-12T15:42:41.865Z,2.28
2023-04-12T15:45:44.978Z,2.38
2023-04-12T15:48:48.163Z,2.60
2023-04-12T15:51:51.612Z,2.65
2023-04-12T15:54:54.168Z,2.60
2023-04-12T15:57:57.214Z,2.67
2023-04-12T16:00:59.738Z,2.50
2023-04-12T16:04:03.382Z,2.75
2023-04-12T16:07:06.210Z,2.38
2023-04-12T16:10:09.506Z,3.00
2023-04-12T16:13:12.622Z,3.10
2023-04-12T16:16:17.840Z,2.47
2023-04-12T16:19:20.488Z,2.40
2023-04-12T16:22:23.424Z,2.70
2023-04-12T16:25:28.167Z,2.85
2023-04-12T16:28:31.479Z,2.97
2023-04-12T16:31:35.630Z,3.33
2023-04-12T16:34:41.329Z,3.50
2023-04-12T16:37:45.537Z,2.80
2023-04-12T16:40:48.217Z,3.42
2023-04-12T16:43:53.847Z,2.97
2023-04-12T16:46:56.897Z,3.25
2023-04-12T16:50:09.968Z,3.38
2023-04-12T16:53:15.122Z,2.92
2023-04-12T16:56:18.513Z,3.00
2023-04-12T16:59:21.736Z,3.03
2023-04-12T17:02:25.514Z,3.30
2023-04-12T17:05:29.861Z,3.28
2023-04-12T17:08:32.854Z,3.17
2023-04-12T17:11:36.485Z,3.17
2023-04-12T17:14:39.910Z,3.38
2023-04-12T17:17:49.389Z,4.03
2023-04-12T17:20:52.487Z,2.95
2023-04-12T17:23:58.641Z,3.35
2023-04-12T17:27:02.675Z,3.60
2023-04-12T17:30:06.722Z,3.83
2023-04-12T17:33:09.434Z,3.75
2023-04-12T17:36:12.566Z,3.53
2023-04-12T17:39:16.598Z,3.45
2023-04-12T17:42:21.392Z,3.70
2023-04-12T17:45:26.127Z,4.07
2023-04-12T17:48:33.006Z,3.90
2023-04-12T17:51:36.264Z,4.13
2023-04-12T17:54:39.579Z,4.18
2023-04-12T17:57:44.767Z,23.58
2023-04-12T18:00:48.368Z,34.10
2023-04-12T18:03:51.861Z,27.95
2023-04-12T18:06:57.011Z,26.63
2023-04-12T18:10:02.748Z,10.75
2023-04-12T18:13:06.292Z,5.60
2023-04-12T18:16:09.447Z,5.15
2023-04-12T18:19:14.162Z,5.97
2023-04-12T18:22:19.229Z,6.60
2023-04-12T18:25:24.350Z,6.32
2023-04-12T18:28:32.087Z,5.75
2023-04-12T18:31:39.134Z,6.50
2023-04-12T18:34:42.907Z,6.60
2023-04-12T18:37:45.824Z,5.38
2023-04-12T18:40:50.299Z,5.55
2023-04-12T18:43:54.353Z,5.30
2023-04-12T18:46:58.139Z,6.38
2023-04-12T18:50:01.174Z,6.50
2023-04-12T18:53:06.469Z,6.28
2023-04-12T18:56:14.527Z,6.82
2023-04-12T18:59:18.793Z,6.93
2023-04-12T19:02:24.873Z,6.55
2023-04-12T19:05:28.747Z,6.70
2023-04-12T19:08:32.340Z,7.38
2023-04-12T19:11:37.328Z,7.40
2023-04-12T19:17:45.314Z,35.85
2023-04-12T19:23:55.945Z,7.82
2023-04-12T19:27:01.089Z,6.57
2023-04-12T19:33:09.158Z,6.88
2023-04-12T19:39:29.502Z,6.82
2023-04-12T19:42:33.233Z,7.20
2023-04-12T19:45:36.813Z,7.70
2023-04-12T19:48:41.510Z,7.18
2023-04-12T19:51:48.382Z,7.05
2023-04-12T19:54:54.717Z,6.28
2023-04-12T19:57:59.497Z,6.35
2023-04-12T20:01:05.005Z,7.97
2023-04-12T20:04:10.266Z,6.90
2023-04-12T20:07:13.947Z,7.97
2023-04-12T20:10:18.745Z,6.88
2023-04-12T20:13:21.803Z,7.85
2023-04-12T20:16:25.175Z,6.60
2023-04-12T20:19:28.855Z,6.68
2023-04-12T20:22:33.389Z,7.05
2023-04-12T20:25:38.582Z,6.05
2023-04-12T20:28:41.719Z,6.43
2023-04-12T20:31:47.723Z,6.65
2023-04-12T20:34:51.493Z,7.03
2023-04-12T20:37:54.661Z,6.63
2023-04-12T20:40:59.859Z,8.27
2023-04-12T20:44:03.599Z,8.35
2023-04-12T20:47:07.437Z,6.95
2023-04-12T20:50:11.745Z,6.95
2023-04-12T20:53:17.687Z,7.80
2023-04-12T20:56:20.615Z,7.95
2023-04-12T20:59:30.862Z,9.30
2023-04-12T21:02:33.846Z,7.80
2023-04-12T21:05:37.741Z,9.00
2023-04-12T21:08:42.625Z,9.77
2023-04-12T21:14:50.442Z,9.30
2023-04-12T21:17:53.085Z,10.57
2023-04-12T21:20:59.344Z,12.38
2023-04-12T21:24:03.941Z,12.30
2023-04-12T21:27:10.134Z,10.25
2023-04-12T21:30:13.921Z,11.18
2023-04-12T21:33:21.903Z,11.57
2023-04-12T21:36:27.897Z,12.43
2023-04-12T21:39:30.638Z,12.52
2023-04-12T21:42:34.525Z,12.85
2023-04-12T21:45:37.332Z,12.95
2023-04-12T21:48:39.920Z,13.35
2023-04-12T21:51:46.176Z,12.73
2023-04-12T21:54:49.128Z,11.82
2023-04-12T21:57:52.386Z,13.15
2023-04-12T22:00:55.750Z,17.13
2023-04-12T22:03:58.667Z,12.93
2023-04-12T22:07:05.265Z,11.88
2023-04-12T22:10:12.454Z,11.45
2023-04-12T22:13:15.930Z,10.95
2023-04-12T22:16:18.515Z,10.68
2023-04-12T22:19:21.375Z,11.02
2023-04-12T22:22:29.948Z,11.50
2023-04-12T22:25:33.656Z,11.35
2023-04-12T22:28:38.139Z,11.32
2023-04-12T22:31:41.026Z,11.77
2023-04-12T22:34:43.846Z,12.57
2023-04-12T22:37:46.569Z,10.60
2023-04-12T22:40:49.481Z,11.35
2023-04-12T22:44:02.952Z,10.85
2023-04-12T22:47:09.078Z,11.38
2023-04-12T22:50:12.964Z,10.77
2023-04-12T22:53:15.897Z,11.52
2023-04-12T22:56:18.869Z,12.23
2023-04-12T22:59:23.055Z,10.77
2023-04-12T23:02:25.884Z,10.57
2023-04-12T23:05:28.940Z,11.75
2023-04-12T23:08:32.294Z,11.57
2023-04-12T23:11:36.309Z,11.60
2023-04-12T23:14:39.298Z,11.88
2023-04-12T23:17:42.216Z,11.32
2023-04-12T23:20:44.954Z,11.57
2023-04-12T23:23:47.554Z,12.50
2023-04-12T23:26:50.251Z,11.85
2023-04-12T23:29:52.958Z,11.80
2023-04-12T23:32:58.485Z,12.32
2023-04-12T23:36:05.204Z,12.73
2023-04-12T23:39:09.462Z,11.45
2023-04-12T23:42:12.132Z,11.25
2023-04-12T23:45:14.984Z,11.18
2023-04-12T23:48:17.591Z,11.27
2023-04-12T23:51:20.204Z,11.45
2023-04-12T23:54:23.643Z,11.20
2023-04-12T23:57:26.407Z,10.18
